createdAt,value
2019-02-15T00:05:22.331Z,97.80
2019-02-15T00:15:27.996Z,98.80
2019-02-15T00:25:33.636Z,99.10
2019-02-15T00:35:40.283Z,99.30
2019-02-15T00:45:47.355Z,98.80
2019-02-15T00:55:57.199Z,98.20
2019-02-15T01:06:31.715Z,99.40
2019-02-15T01:16:37.406Z,99.00
2019-02-15T01:26:44.514Z,99.00
2019-02-15T01:36:51.580Z,99.50
2019-02-15T01:46:58.654Z,99.60
2019-02-15T01:57:04.278Z,99.70
2019-02-15T02:07:10.076Z,96.70
2019-02-15T02:17:15.673Z,97.90
2019-02-15T02:27:21.282Z,97.80
2019-02-15T02:37:26.876Z,96.50
2019-02-15T02:47:32.475Z,95.50
2019-02-15T02:57:38.079Z,95.60
2019-02-15T03:07:43.742Z,95.00
2019-02-15T03:17:49.321Z,96.00
2019-02-15T03:27:54.932Z,95.90
2019-02-15T03:38:10.873Z,96.10
2019-02-15T03:48:16.348Z,97.40
2019-02-15T03:58:21.952Z,97.60
2019-02-15T04:08:27.528Z,99.10
2019-02-15T04:18:33.051Z,98.40
2019-02-15T04:28:38.552Z,97.10
2019-02-15T04:38:44.154Z,97.60
2019-02-15T04:48:49.752Z,97.80
2019-02-15T04:58:55.352Z,96.40
2019-02-15T05:09:01.000Z,94.70
2019-02-15T05:19:06.647Z,95.80
2019-02-15T05:29:12.182Z,95.70
2019-02-15T05:39:17.874Z,94.80
2019-02-15T05:49:23.484Z,94.80
2019-02-15T05:59:29.032Z,94.30
2019-02-15T06:09:34.553Z,94.00
2019-02-15T06:19:40.161Z,94.50
2019-02-15T06:29:45.802Z,94.60
2019-02-15T06:39:51.364Z,94.70
2019-02-15T06:49:56.840Z,94.30
2019-02-15T07:00:20.414Z,94.20
2019-02-15T07:10:27.964Z,94.40
2019-02-15T07:20:33.143Z,94.30
2019-02-15T07:30:38.637Z,94.40
2019-02-15T07:40:46.972Z,93.80
2019-02-15T07:50:55.465Z,93.50
2019-02-15T08:01:02.362Z,93.00
2019-02-15T08:11:07.866Z,93.40
2019-02-15T08:21:13.396Z,93.20
2019-02-15T08:31:19.931Z,93.60
2019-02-15T08:41:25.424Z,93.50
2019-02-15T08:51:32.812Z,93.50
2019-02-15T09:01:38.052Z,92.80
2019-02-15T09:11:43.565Z,92.40
2019-02-15T09:21:49.078Z,91.80
2019-02-15T09:31:54.782Z,91.00
2019-02-15T09:42:00.385Z,90.60
2019-02-15T09:52:05.927Z,85.50
2019-02-15T10:02:11.410Z,87.50
2019-02-15T10:12:16.944Z,84.10
2019-02-15T10:22:22.425Z,78.40
2019-02-15T10:32:28.029Z,76.00
2019-02-15T10:42:33.629Z,76.90
2019-02-15T10:52:39.168Z,73.20
2019-02-15T11:02:44.826Z,77.00
2019-02-15T11:12:50.320Z,78.30
2019-02-15T11:22:55.774Z,75.90
2019-02-15T11:33:01.395Z,76.80
2019-02-15T11:43:06.909Z,77.70
2019-02-15T11:53:12.522Z,73.30
2019-02-15T12:03:18.098Z,78.70
2019-02-15T12:13:23.564Z,73.70
2019-02-15T12:23:29.071Z,72.00
2019-02-15T12:33:34.635Z,72.60
2019-02-15T12:43:40.102Z,68.60
2019-02-15T12:53:45.672Z,67.40
2019-02-15T13:03:51.255Z,68.40
2019-02-15T13:13:56.905Z,68.50
2019-02-15T13:24:02.462Z,64.00
2019-02-15T13:34:08.036Z,64.60
2019-02-15T13:44:13.585Z,62.80
2019-02-15T13:54:19.201Z,61.70
2019-02-15T14:04:24.879Z,61.40
2019-02-15T14:14:30.789Z,59.40
2019-02-15T14:24:36.372Z,57.50
2019-02-15T14:34:41.993Z,60.20
2019-02-15T14:44:47.597Z,57.60
2019-02-15T14:54:55.387Z,59.60
2019-02-15T15:05:01.010Z,58.20
2019-02-15T15:15:11.573Z,58.60
2019-02-15T15:25:18.379Z,59.80
2019-02-15T15:35:23.852Z,59.90
2019-02-15T15:45:29.777Z,61.70
2019-02-15T15:55:39.761Z,63.90
2019-02-15T16:05:45.361Z,66.80
2019-02-15T16:15:50.953Z,72.90
2019-02-15T16:25:56.658Z,76.70
2019-02-15T16:36:02.174Z,78.00
2019-02-15T16:46:07.924Z,79.60
2019-02-15T16:56:13.678Z,79.20
2019-02-15T17:06:26.124Z,81.30
2019-02-15T17:16:32.199Z,82.50
2019-02-15T17:26:38.201Z,83.60
2019-02-15T17:36:44.118Z,83.60
2019-02-15T17:46:50.079Z,84.20
2019-02-15T17:56:56.159Z,85.30
2019-02-15T18:07:02.217Z,87.80
2019-02-15T18:17:08.192Z,89.70
2019-02-15T18:27:16.573Z,89.70
2019-02-15T18:37:24.174Z,90.20
2019-02-15T18:47:30.098Z,90.40
2019-02-15T18:57:36.852Z,91.10
2019-02-15T19:07:42.774Z,91.00
2019-02-15T19:17:48.811Z,91.10
2019-02-15T19:27:54.727Z,92.10
2019-02-15T19:38:00.562Z,91.20
2019-02-15T19:48:06.581Z,91.30
2019-02-15T19:58:13.723Z,91.60
2019-02-15T20:08:20.911Z,91.80
2019-02-15T20:18:27.872Z,91.80
2019-02-15T20:28:33.886Z,91.90
2019-02-15T20:38:40.887Z,92.70
2019-02-15T20:49:04.271Z,92.80
2019-02-15T20:59:01.478Z,92.20
2019-02-15T21:09:07.494Z,91.70
2019-02-15T21:19:14.445Z,91.60
2019-02-15T21:29:20.372Z,92.50
2019-02-15T21:39:26.413Z,92.30
2019-02-15T21:49:32.493Z,92.20
2019-02-15T21:59:38.452Z,91.80
2019-02-15T22:09:44.482Z,91.60
2019-02-15T22:19:50.245Z,91.70
2019-02-15T22:29:55.931Z,92.20
2019-02-15T22:40:20.957Z,92.10
2019-02-15T22:50:35.368Z,91.90
2019-02-15T23:00:53.508Z,93.10
2019-02-15T23:11:06.303Z,92.60
2019-02-15T23:21:11.974Z,92.80
2019-02-15T23:31:17.526Z,92.80
2019-02-15T23:41:23.141Z,94.00
2019-02-15T23:51:28.790Z,94.00
